Time;durP1;ratioP1;P1;durP2;ratioP2;P2;SDS_P1;SDS_P2;PMS_P1;PMS_P2;Temp;Humidity;BMP_temperature;BMP_pressure;BME280_temperature;BME280_humidity;BME280_pressure;Samples;Min_cycle;Max_cycle;Signal;HPM_P1;HPM_P2
2022/12/04 00:00:16;;;;;;;42.80;23.13;;;0.10;96.10;;;;;;5047549;28;20025;-67
2022/12/04 00:02:41;;;;;;;41.13;21.48;;;0.10;95.40;;;;;;5046084;28;20029;-67
2022/12/04 00:05:08;;;;;;;46.78;22.83;;;0.10;95.80;;;;;;5049665;28;20033;-67
2022/12/04 00:07:34;;;;;;;52.03;25.23;;;0.10;95.60;;;;;;5052058;28;20040;-68
2022/12/04 00:10:00;;;;;;;47.45;24.13;;;0.10;95.20;;;;;;5047521;28;20024;-68
2022/12/04 00:12:26;;;;;;;48.80;23.77;;;0.10;95.60;;;;;;5043136;28;20433;-67
2022/12/04 00:14:51;;;;;;;44.90;23.20;;;0.10;95.00;;;;;;5045753;28;20025;-67
2022/12/04 00:17:17;;;;;;;48.10;23.95;;;0.10;95.30;;;;;;5047676;28;20033;-68
2022/12/04 00:19:43;;;;;;;45.55;22.85;;;0.10;95.00;;;;;;5040999;28;20068;-68
2022/12/04 00:22:08;;;;;;;49.03;23.50;;;0.10;95.50;;;;;;5042058;28;20029;-68
2022/12/04 00:24:34;;;;;;;44.10;23.42;;;0.00;94.60;;;;;;5049469;28;20049;-68
2022/12/04 00:27:00;;;;;;;44.88;22.48;;;0.00;94.10;;;;;;5051787;28;20079;-68
2022/12/04 00:29:28;;;;;;;41.83;21.70;;;0.10;95.40;;;;;;5043825;28;20318;-68
2022/12/04 00:31:54;;;;;;;40.65;23.08;;;0.00;94.40;;;;;;5053127;28;20410;-68
2022/12/04 00:34:21;;;;;;;46.38;23.80;;;0.00;94.50;;;;;;5040940;28;20097;-68
2022/12/04 00:36:50;;;;;;;45.30;23.58;;;0.00;94.50;;;;;;5052194;28;20090;-68
2022/12/04 00:39:15;;;;;;;44.53;22.50;;;0.10;94.30;;;;;;5042703;28;20079;-68
2022/12/04 00:41:41;;;;;;;50.17;24.65;;;0.10;94.40;;;;;;5052570;28;20029;-68
2022/12/04 00:44:10;;;;;;;47.28;23.17;;;0.00;94.40;;;;;;5044095;28;20029;-68
2022/12/04 00:46:35;;;;;;;41.15;21.98;;;0.00;94.10;;;;;;5045051;28;20050;-69
2022/12/04 00:49:01;;;;;;;45.17;22.88;;;0.10;94.70;;;;;;5045164;28;20014;-68
2022/12/04 00:51:27;;;;;;;48.15;22.67;;;0.00;95.30;;;;;;5046132;28;20056;-68
2022/12/04 00:53:53;;;;;;;44.38;22.95;;;0.00;95.60;;;;;;5047973;28;20021;-68
2022/12/04 00:56:25;;;;;;;49.53;24.15;;;0.00;95.40;;;;;;5049547;28;20433;-68
2022/12/04 00:58:56;;;;;;;45.15;22.63;;;0.00;94.80;;;;;;5045309;28;20033;-68
2022/12/04 01:01:22;;;;;;;43.40;22.30;;;0.00;95.30;;;;;;5041668;28;20044;-68
2022/12/04 01:03:48;;;;;;;43.50;22.33;;;0.00;95.50;;;;;;5055814;28;20358;-67
2022/12/04 01:06:23;;;;;;;47.88;24.48;;;-0.10;94.80;;;;;;5050432;28;20088;-67
2022/12/04 01:08:53;;;;;;;45.83;23.45;;;0.00;94.50;;;;;;5067337;28;20287;-67
2022/12/04 01:11:21;;;;;;;46.05;23.05;;;0.00;94.40;;;;;;5051694;28;20021;-67
2022/12/04 01:13:47;;;;;;;53.25;26.23;;;0.00;94.40;;;;;;5047791;28;20116;-69
2022/12/04 01:16:22;;;;;;;47.72;24.80;;;0.10;94.50;;;;;;5081032;28;20075;-69
2022/12/04 01:18:49;;;;;;;48.67;24.13;;;0.00;94.30;;;;;;5049207;28;20033;-68
2022/12/04 01:21:15;;;;;;;44.50;22.38;;;0.10;94.40;;;;;;5055470;28;20048;-68
2022/12/04 01:23:40;;;;;;;50.97;25.48;;;0.10;94.70;;;;;;5049707;28;20030;-68
2022/12/04 01:26:09;;;;;;;47.05;23.00;;;0.10;94.80;;;;;;5046615;28;20056;-68
2022/12/04 01:28:35;;;;;;;46.20;23.65;;;0.00;94.50;;;;;;5040607;28;20025;-68
2022/12/04 01:31:04;;;;;;;48.25;25.85;;;0.00;94.80;;;;;;5047657;28;20029;-69
2022/12/04 01:33:32;;;;;;;43.50;22.40;;;0.00;94.60;;;;;;5045586;28;20084;-68
2022/12/04 01:35:59;;;;;;;42.65;21.77;;;0.00;94.10;;;;;;5041872;28;20051;-68
2022/12/04 01:38:26;;;;;;;39.80;21.40;;;0.10;94.50;;;;;;5040323;28;20075;-68
2022/12/04 01:40:52;;;;;;;43.63;22.67;;;0.10;95.00;;;;;;5049170;28;20017;-68
2022/12/04 01:43:18;;;;;;;47.20;24.83;;;0.10;95.00;;;;;;5034274;28;20072;-68
2022/12/04 01:45:50;;;;;;;45.05;24.58;;;0.10;94.90;;;;;;5050126;28;20108;-68
2022/12/04 01:48:25;;;;;;;49.67;24.90;;;0.10;94.90;;;;;;5048011;28;20025;-68
2022/12/04 01:50:57;;;;;;;45.67;22.75;;;0.10;95.20;;;;;;5038493;28;20501;-68
2022/12/04 01:53:22;;;;;;;45.30;21.80;;;0.10;94.90;;;;;;5055464;28;20031;-68
2022/12/04 01:55:49;;;;;;;40.50;20.80;;;0.10;95.00;;;;;;5039466;28;20477;-68
2022/12/04 01:58:19;;;;;;;47.33;22.73;;;0.10;95.40;;;;;;5054937;28;20029;-68
2022/12/04 02:00:51;;;;;;;42.15;21.70;;;0.10;95.40;;;;;;5052766;28;20107;-68
2022/12/04 02:03:17;;;;;;;37.95;20.88;;;0.10;96.60;;;;;;5044740;28;20410;-67
2022/12/04 02:05:42;;;;;;;44.08;22.73;;;0.10;96.20;;;;;;5040985;28;20040;-68
2022/12/04 02:08:09;;;;;;;40.17;21.42;;;0.00;95.80;;;;;;5035981;28;20029;-67
2022/12/04 02:11:12;;;;;;;48.00;23.05;;;0.10;95.70;;;;;;5053745;28;20028;-68
2022/12/04 02:14:02;;;;;;;44.08;23.35;;;0.10;95.60;;;;;;5067154;28;20026;-68
2022/12/04 02:16:44;;;;;;;45.38;23.95;;;0.20;95.80;;;;;;5055312;28;20392;-68
2022/12/04 02:19:52;;;;;;;47.30;22.85;;;0.20;95.80;;;;;;5046473;28;20033;-68
2022/12/04 02:22:30;;;;;;;43.00;22.75;;;0.20;96.00;;;;;;5052386;28;20043;-68
2022/12/04 02:25:05;;;;;;;43.75;23.02;;;0.30;96.20;;;;;;5037865;28;20077;-68
2022/12/04 02:27:40;;;;;;;47.65;24.25;;;0.30;97.30;;;;;;5055697;28;20044;-68
2022/12/04 02:30:11;;;;;;;42.80;22.38;;;0.20;97.20;;;;;;5047419;28;20025;-68
2022/12/04 02:32:57;;;;;;;44.63;22.58;;;0.20;96.60;;;;;;5053907;28;20107;-68
2022/12/04 02:35:58;;;;;;;42.15;22.05;;;0.30;97.70;;;;;;5037479;28;20022;-68
2022/12/04 02:38:41;;;;;;;46.78;24.05;;;0.20;97.20;;;;;;5036651;28;20119;-68
2022/12/04 02:41:21;;;;;;;43.67;23.95;;;0.20;97.10;;;;;;5073457;28;20025;-68
2022/12/04 02:44:00;;;;;;;43.70;23.15;;;0.30;97.20;;;;;;5036997;28;20037;-68
2022/12/04 02:46:29;;;;;;;42.92;21.83;;;0.20;98.00;;;;;;5047827;28;20330;-68
2022/12/04 02:49:00;;;;;;;41.65;20.95;;;0.20;96.90;;;;;;5050228;28;20441;-68
2022/12/04 02:51:30;;;;;;;48.95;25.02;;;0.20;96.20;;;;;;5054073;28;20418;-68
2022/12/04 02:54:02;;;;;;;42.38;22.20;;;0.20;96.50;;;;;;5046413;28;20028;-68
2022/12/04 02:56:31;;;;;;;41.97;23.48;;;0.30;96.50;;;;;;5042012;28;20439;-68
2022/12/04 02:59:30;;;;;;;45.53;22.35;;;0.20;97.00;;;;;;5048895;28;20132;-68
2022/12/04 03:02:00;;;;;;;41.95;21.38;;;0.20;96.10;;;;;;5035765;28;20029;-68
2022/12/04 03:04:29;;;;;;;46.75;23.33;;;0.20;96.70;;;;;;5052525;28;20029;-68
2022/12/04 03:07:04;;;;;;;42.08;22.15;;;0.30;98.00;;;;;;5050435;28;20024;-68
2022/12/04 03:09:36;;;;;;;45.15;22.27;;;0.20;97.30;;;;;;5048718;28;20029;-68
2022/12/04 03:12:29;;;;;;;41.78;22.55;;;0.20;96.70;;;;;;5051810;28;20013;-68
2022/12/04 03:15:04;;;;;;;39.20;21.08;;;0.30;97.00;;;;;;5035913;28;20030;-68
2022/12/04 03:17:37;;;;;;;38.97;20.67;;;0.30;98.00;;;;;;5035355;28;20036;-68
2022/12/04 03:20:09;;;;;;;45.90;22.50;;;0.30;98.00;;;;;;5055443;28;20124;-68
2022/12/04 03:22:39;;;;;;;50.97;23.55;;;0.20;98.00;;;;;;5050079;28;20025;-68
2022/12/04 03:25:06;;;;;;;47.88;23.55;;;0.20;97.20;;;;;;5044271;28;20041;-68
2022/12/04 03:28:01;;;;;;;39.85;20.15;;;0.10;96.20;;;;;;5041077;28;20041;-68
2022/12/04 03:30:35;;;;;;;45.17;22.10;;;0.20;96.00;;;;;;5041953;28;20104;-67
2022/12/04 03:33:10;;;;;;;41.35;21.63;;;0.10;96.30;;;;;;5040961;28;20330;-68
2022/12/04 03:35:45;;;;;;;44.30;21.40;;;0.10;96.30;;;;;;5043054;28;20033;-69
2022/12/04 03:38:30;;;;;;;42.35;21.42;;;0.10;96.60;;;;;;5039425;28;20026;-68
2022/12/04 03:41:19;;;;;;;39.35;20.95;;;0.10;96.10;;;;;;5042437;28;20028;-67
2022/12/04 03:43:54;;;;;;;40.70;19.63;;;0.10;95.80;;;;;;5038123;28;20104;-68
2022/12/04 03:46:31;;;;;;;43.08;21.92;;;0.10;95.80;;;;;;5040648;28;20449;-67
2022/12/04 03:49:07;;;;;;;41.85;20.52;;;0.10;95.50;;;;;;5040407;28;20422;-68
2022/12/04 03:51:42;;;;;;;37.97;20.27;;;0.10;95.70;;;;;;5044296;28;20025;-67
2022/12/04 03:54:19;;;;;;;38.40;19.33;;;0.10;96.10;;;;;;5052511;28;20056;-68
2022/12/04 03:57:02;;;;;;;36.42;18.83;;;0.10;96.00;;;;;;5049252;28;20031;-68
2022/12/04 03:59:42;;;;;;;36.72;19.10;;;0.10;95.60;;;;;;5042665;28;20025;-67
2022/12/04 04:02:16;;;;;;;35.08;19.38;;;0.10;96.60;;;;;;5047489;28;20414;-67
2022/12/04 04:04:46;;;;;;;33.20;17.88;;;0.10;97.30;;;;;;5050764;28;20029;-67
2022/12/04 04:07:27;;;;;;;32.67;18.30;;;0.00;97.30;;;;;;5045504;28;20052;-67
2022/12/04 04:09:57;;;;;;;35.42;17.95;;;0.00;97.50;;;;;;5044891;28;20424;-69
2022/12/04 04:12:29;;;;;;;34.00;18.75;;;0.00;97.40;;;;;;5046877;28;20045;-68
2022/12/04 04:26:27;;;;;;;36.38;19.13;;;0.10;98.00;;;;;;5045645;28;19923;-68
2022/12/04 04:28:52;;;;;;;39.22;19.50;;;0.00;97.20;;;;;;5042911;28;20034;-68
2022/12/04 04:31:21;;;;;;;38.10;19.90;;;0.00;97.00;;;;;;5048030;28;20029;-68
2022/12/04 04:34:03;;;;;;;35.70;18.55;;;0.00;95.90;;;;;;5051650;28;20353;-67
2022/12/04 04:36:50;;;;;;;36.72;19.25;;;0.10;97.20;;;;;;5051035;28;20079;-68
2022/12/04 04:39:33;;;;;;;35.92;18.20;;;0.10;97.90;;;;;;5040211;28;20095;-68
2022/12/04 04:42:06;;;;;;;39.03;20.15;;;0.10;98.00;;;;;;5049929;28;20033;-68
2022/12/04 04:44:37;;;;;;;41.47;21.30;;;0.00;97.20;;;;;;5053368;28;20025;-67
2022/12/04 04:47:06;;;;;;;38.17;19.67;;;-0.10;97.30;;;;;;5042977;28;20032;-67
2022/12/04 04:49:33;;;;;;;41.88;22.02;;;-0.10;95.90;;;;;;5054801;28;20053;-68
2022/12/04 04:51:59;;;;;;;39.10;21.63;;;0.00;96.80;;;;;;5049106;28;20029;-67
2022/12/04 04:54:26;;;;;;;37.15;19.60;;;0.00;96.80;;;;;;5049873;28;20049;-68
2022/12/04 04:56:52;;;;;;;43.70;21.40;;;0.00;97.20;;;;;;5044518;28;20028;-68
2022/12/04 04:59:17;;;;;;;44.85;24.25;;;-0.10;96.20;;;;;;5046954;28;20028;-68
2022/12/04 05:01:45;;;;;;;43.00;23.35;;;-0.10;96.10;;;;;;5042622;28;20362;-68
2022/12/04 05:04:11;;;;;;;48.65;25.42;;;-0.10;96.30;;;;;;5054346;28;20111;-68
2022/12/04 05:06:37;;;;;;;42.92;23.48;;;-0.10;95.80;;;;;;5041666;28;20116;-68
2022/12/04 05:09:03;;;;;;;47.20;22.90;;;-0.10;95.60;;;;;;5049499;28;20025;-68
2022/12/04 05:11:28;;;;;;;51.22;22.73;;;-0.10;95.00;;;;;;5045279;28;20025;-68
2022/12/04 05:13:54;;;;;;;43.78;22.85;;;-0.10;95.10;;;;;;5047128;28;20096;-67
2022/12/04 05:16:19;;;;;;;43.08;22.13;;;0.00;95.10;;;;;;5040261;28;20034;-68
2022/12/04 05:19:52;;;;;;;47.10;22.98;;;0.00;95.10;;;;;;5055689;28;20338;-68
2022/12/04 05:21:32;;;;;;;42.50;21.17;;;0.00;95.40;;;;;;5045565;28;20398;-68
2022/12/04 05:23:57;;;;;;;45.28;22.75;;;-0.10;95.80;;;;;;5046848;28;20028;-68
2022/12/04 05:26:23;;;;;;;40.78;21.17;;;0.00;95.90;;;;;;5053074;28;20121;-68
2022/12/04 05:28:49;;;;;;;43.55;22.25;;;-0.10;96.30;;;;;;5042458;28;20026;-67
2022/12/04 05:31:15;;;;;;;45.33;23.00;;;-0.10;95.80;;;;;;5047740;28;20021;-68
2022/12/04 05:33:40;;;;;;;41.08;21.55;;;-0.10;96.10;;;;;;5042891;28;20041;-68
2022/12/04 05:36:08;;;;;;;41.67;20.63;;;-0.10;95.10;;;;;;5047237;28;20125;-68
2022/12/04 05:38:34;;;;;;;46.78;24.52;;;-0.10;95.10;;;;;;5051175;28;20405;-68
2022/12/04 05:41:02;;;;;;;47.35;23.60;;;-0.10;95.50;;;;;;5037115;28;20029;-68
2022/12/04 05:43:27;;;;;;;41.70;22.08;;;-0.20;95.60;;;;;;5045913;28;20033;-67
2022/12/04 05:45:53;;;;;;;42.88;21.17;;;-0.10;95.60;;;;;;5044774;28;20513;-68
2022/12/04 05:48:19;;;;;;;46.70;23.15;;;-0.10;95.00;;;;;;5034950;28;20393;-67
2022/12/04 05:50:44;;;;;;;49.20;23.48;;;-0.10;95.10;;;;;;5048544;28;20369;-67
2022/12/04 05:53:10;;;;;;;46.88;22.23;;;-0.10;95.40;;;;;;5038567;28;20031;-67
2022/12/04 05:55:36;;;;;;;47.10;22.92;;;-0.10;95.10;;;;;;5047852;28;20025;-67
2022/12/04 05:58:02;;;;;;;44.35;23.42;;;-0.10;95.40;;;;;;5039965;28;20028;-68
2022/12/04 06:00:31;;;;;;;42.13;21.05;;;-0.10;94.80;;;;;;5047879;28;20120;-68
2022/12/04 06:02:56;;;;;;;46.70;24.25;;;0.00;94.80;;;;;;5047195;28;20020;-67
2022/12/04 06:05:22;;;;;;;44.17;23.05;;;0.00;95.70;;;;;;5042587;28;20426;-67
2022/12/04 06:07:48;;;;;;;43.53;21.38;;;0.00;95.80;;;;;;5056849;28;20309;-68
2022/12/04 06:10:16;;;;;;;41.05;21.20;;;0.00;95.70;;;;;;5068412;28;20485;-67
2022/12/04 06:12:42;;;;;;;37.40;19.48;;;0.10;96.50;;;;;;5053137;28;20056;-67
2022/12/04 06:15:08;;;;;;;43.55;21.60;;;0.10;96.70;;;;;;5049207;28;20394;-67
2022/12/04 06:17:33;;;;;;;44.15;21.42;;;0.10;97.90;;;;;;5050689;28;20032;-67
2022/12/04 06:19:59;;;;;;;40.80;21.52;;;0.00;97.30;;;;;;5049010;28;20025;-67
2022/12/04 06:22:24;;;;;;;41.55;21.75;;;0.00;96.90;;;;;;5038031;28;20025;-67
2022/12/04 06:24:50;;;;;;;37.97;19.77;;;0.00;97.30;;;;;;5049965;28;20044;-67
2022/12/04 06:27:15;;;;;;;39.55;20.42;;;0.00;96.90;;;;;;5049310;28;20318;-68
2022/12/04 06:29:44;;;;;;;38.10;20.38;;;0.10;98.00;;;;;;5041352;28;20025;-67
2022/12/04 06:32:09;;;;;;;41.60;21.70;;;0.00;97.40;;;;;;5049083;28;20026;-68
2022/12/04 06:34:38;;;;;;;39.03;21.70;;;-0.10;97.10;;;;;;5044216;28;20142;-67
2022/12/04 06:37:04;;;;;;;41.97;22.45;;;-0.10;96.70;;;;;;5041937;28;20017;-67
2022/12/04 06:39:29;;;;;;;43.03;22.38;;;-0.10;96.80;;;;;;5047798;28;20411;-67
2022/12/04 06:41:55;;;;;;;43.45;22.13;;;-0.10;96.60;;;;;;5036730;28;20414;-66
2022/12/04 06:44:20;;;;;;;35.05;19.42;;;0.00;96.00;;;;;;5038696;28;20025;-66
2022/12/04 06:46:48;;;;;;;38.38;20.73;;;0.00;96.20;;;;;;5042441;28;20029;-66
2022/12/04 06:49:13;;;;;;;39.83;21.15;;;0.00;96.70;;;;;;5047227;28;20029;-67
2022/12/04 06:51:39;;;;;;;44.47;21.77;;;0.00;96.20;;;;;;5053164;28;20033;-66
2022/12/04 06:54:05;;;;;;;37.40;19.15;;;0.00;96.30;;;;;;5037434;28;20030;-65
2022/12/04 06:56:32;;;;;;;38.97;20.90;;;0.00;96.10;;;;;;5067700;28;20053;-66
2022/12/04 06:59:04;;;;;;;39.45;21.52;;;0.00;97.00;;;;;;5038847;28;20021;-66
2022/12/04 07:01:32;;;;;;;47.33;23.58;;;0.10;96.70;;;;;;5059316;28;20414;-66
2022/12/04 07:04:00;;;;;;;43.08;22.92;;;0.00;98.00;;;;;;5040406;28;20474;-68
2022/12/04 07:06:28;;;;;;;45.45;23.35;;;0.00;96.90;;;;;;5053577;28;20133;-68
2022/12/04 07:08:59;;;;;;;44.03;21.67;;;0.00;96.40;;;;;;5048642;28;20025;-67
2022/12/04 07:11:25;;;;;;;50.55;24.88;;;0.10;96.40;;;;;;5051295;28;20029;-68
2022/12/04 07:13:52;;;;;;;45.97;23.60;;;0.10;97.00;;;;;;5053445;28;20020;-67
2022/12/04 07:16:26;;;;;;;42.45;22.52;;;0.10;97.20;;;;;;5058228;28;20035;-67
2022/12/04 07:18:52;;;;;;;;;;;0.10;97.00;;;;;;5052598;28;20107;-68
2022/12/04 07:21:21;;;;;;;38.97;20.45;;;0.10;97.10;;;;;;5053156;28;19913;-67
2022/12/04 07:23:55;;;;;;;42.65;21.65;;;0.20;97.10;;;;;;5045641;28;20150;-67
2022/12/04 07:26:21;;;;;;;43.30;22.25;;;0.20;97.80;;;;;;5047344;28;20080;-67
2022/12/04 07:28:47;;;;;;;41.97;21.30;;;0.20;97.40;;;;;;5043121;28;20029;-67
2022/12/04 07:31:18;;;;;;;42.53;21.60;;;0.10;97.70;;;;;;5044315;28;20024;-67
2022/12/04 07:33:48;;;;;;;42.30;20.67;;;0.20;97.20;;;;;;5060294;28;20028;-67
2022/12/04 07:36:18;;;;;;;38.10;20.52;;;0.20;97.60;;;;;;5057566;28;20029;-67
2022/12/04 07:38:44;;;;;;;38.78;20.92;;;0.30;98.00;;;;;;5047436;28;20032;-67
2022/12/04 07:41:14;;;;;;;41.97;21.48;;;0.30;97.90;;;;;;5046717;28;20334;-67
2022/12/04 07:43:40;;;;;;;36.80;20.38;;;0.30;98.00;;;;;;5048416;28;20414;-67
2022/12/04 07:46:17;;;;;;;41.95;22.52;;;0.30;98.00;;;;;;5060775;28;20032;-67
2022/12/04 07:48:43;;;;;;;43.85;23.05;;;0.40;98.00;;;;;;5047619;28;20036;-67
2022/12/04 07:51:20;;;;;;;42.80;22.30;;;0.40;98.00;;;;;;5057204;28;20025;-67
2022/12/04 07:53:46;;;;;;;46.80;23.00;;;0.40;98.00;;;;;;5045153;28;20487;-67
2022/12/04 07:56:13;;;;;;;36.55;19.52;;;0.50;98.00;;;;;;5035378;28;20329;-67
2022/12/04 07:58:39;;;;;;;40.33;21.48;;;0.50;98.00;;;;;;5035473;28;20040;-67
2022/12/04 08:01:09;;;;;;;39.33;21.50;;;0.50;98.00;;;;;;5040262;28;20029;-67
2022/12/04 08:03:35;;;;;;;39.17;20.35;;;0.60;98.00;;;;;;5038833;28;20379;-67
2022/12/04 08:06:02;;;;;;;42.75;22.25;;;0.60;98.00;;;;;;5057973;28;20094;-67
2022/12/04 08:08:31;;;;;;;48.72;26.42;;;0.70;98.00;;;;;;5055023;28;20028;-67
2022/12/04 08:10:58;;;;;;;40.28;21.95;;;0.70;98.00;;;;;;5050209;28;20028;-67
2022/12/04 08:13:23;;;;;;;52.42;26.55;;;0.80;98.00;;;;;;5053984;28;20037;-67
2022/12/04 08:15:49;;;;;;;48.83;26.77;;;0.80;98.00;;;;;;5046490;28;20032;-67
2022/12/04 08:18:15;;;;;;;39.90;21.38;;;0.70;98.00;;;;;;5057319;28;20024;-67
2022/12/04 08:20:40;;;;;;;45.10;24.38;;;0.70;98.00;;;;;;5056336;28;20024;-67
2022/12/04 08:23:06;;;;;;;39.45;20.48;;;0.80;98.00;;;;;;5046136;28;20033;-67
2022/12/04 08:25:32;;;;;;;40.28;20.95;;;0.80;98.00;;;;;;5055902;28;20430;-67
2022/12/04 08:27:57;;;;;;;41.97;21.42;;;0.80;98.00;;;;;;5054970;28;20033;-67
2022/12/04 08:30:23;;;;;;;42.15;22.40;;;0.80;98.00;;;;;;5043392;28;20049;-67
2022/12/04 08:32:49;;;;;;;40.45;21.65;;;0.80;98.00;;;;;;5054074;28;20017;-65
2022/12/04 08:35:14;;;;;;;39.75;21.10;;;0.70;98.00;;;;;;5049673;28;20028;-66
2022/12/04 08:37:40;;;;;;;39.22;20.95;;;0.80;98.00;;;;;;5033461;28;20051;-67
2022/12/04 08:40:06;;;;;;;46.92;24.77;;;0.80;98.00;;;;;;5056918;28;20025;-67
2022/12/04 08:42:31;;;;;;;42.05;23.17;;;0.90;98.00;;;;;;5055341;28;20053;-67
2022/12/04 08:44:57;;;;;;;42.95;23.13;;;0.80;98.00;;;;;;5047754;28;20049;-68
2022/12/04 08:47:23;;;;;;;35.80;19.83;;;0.80;98.00;;;;;;5052283;28;20037;-67
2022/12/04 08:49:48;;;;;;;36.38;20.80;;;0.90;98.00;;;;;;5051694;28;20028;-67
2022/12/04 08:52:14;;;;;;;36.13;20.35;;;0.90;98.00;;;;;;5055157;28;20074;-67
2022/12/04 08:54:39;;;;;;;35.35;19.48;;;1.00;98.00;;;;;;5056376;28;20350;-66
2022/12/04 08:57:05;;;;;;;31.63;17.27;;;1.10;98.00;;;;;;5046355;28;20748;-67
2022/12/04 08:59:34;;;;;;;29.65;17.63;;;1.20;98.00;;;;;;5035402;28;20037;-67
2022/12/04 09:01:59;;;;;;;29.40;16.98;;;1.30;98.00;;;;;;5033528;28;20029;-67
2022/12/04 09:04:25;;;;;;;32.28;17.33;;;1.30;98.00;;;;;;5030724;28;20312;-66
2022/12/04 09:06:50;;;;;;;33.75;18.60;;;1.30;98.00;;;;;;5032998;28;20048;-66
2022/12/04 09:09:16;;;;;;;33.35;18.25;;;1.30;98.00;;;;;;5034185;28;20076;-66
2022/12/04 09:11:44;;;;;;;31.00;18.67;;;1.30;98.00;;;;;;5031983;28;20406;-66
2022/12/04 09:14:10;;;;;;;31.55;18.52;;;1.30;98.00;;;;;;5030554;28;20029;-67
2022/12/04 09:16:39;;;;;;;87.80;46.03;;;1.40;98.00;;;;;;5047407;28;20315;-66
2022/12/04 09:19:04;;;;;;;48.22;26.85;;;1.40;98.00;;;;;;5030835;28;20044;-66
2022/12/04 09:21:30;;;;;;;56.45;30.83;;;1.40;98.00;;;;;;5030774;28;20467;-66
2022/12/04 09:23:55;;;;;;;49.90;27.77;;;1.50;98.00;;;;;;5028150;28;20115;-67
2022/12/04 09:26:28;;;;;;;41.22;24.48;;;1.60;98.00;;;;;;5030568;28;20052;-66
2022/12/04 09:28:56;;;;;;;28.55;16.23;;;1.60;98.00;;;;;;5032328;28;20078;-67
2022/12/04 09:31:23;;;;;;;34.40;18.67;;;1.60;98.00;;;;;;5028177;28;20034;-67
2022/12/04 09:33:48;;;;;;;27.05;15.75;;;1.60;98.00;;;;;;5030199;28;20029;-67
2022/12/04 09:36:15;;;;;;;29.65;17.10;;;1.70;98.00;;;;;;5033803;28;20025;-68
2022/12/04 09:38:44;;;;;;;28.50;16.60;;;1.70;98.00;;;;;;5029900;28;20026;-67
2022/12/04 09:41:51;;;;;;;32.70;17.33;;;1.60;98.00;;;;;;5040902;28;20033;-67
2022/12/04 09:44:27;;;;;;;31.85;18.10;;;1.50;98.00;;;;;;5037195;28;20037;-68
2022/12/04 09:47:02;;;;;;;38.90;20.92;;;1.40;98.00;;;;;;5052740;28;20444;-68
2022/12/04 09:49:38;;;;;;;33.50;18.23;;;1.30;98.00;;;;;;5037686;28;20037;-67
2022/12/04 09:52:32;;;;;;;32.58;19.13;;;1.30;98.00;;;;;;5033978;28;20029;-67
2022/12/04 09:54:59;;;;;;;33.53;18.83;;;1.20;98.00;;;;;;5053845;28;20032;-67
2022/12/04 09:57:35;;;;;;;32.20;18.65;;;1.20;98.00;;;;;;5041294;28;20456;-69
2022/12/04 10:00:05;;;;;;;35.10;19.58;;;1.10;98.00;;;;;;5030061;28;20032;-69
2022/12/04 10:02:40;;;;;;;26.38;15.68;;;1.10;98.00;;;;;;5030652;28;20024;-68
2022/12/04 10:05:20;;;;;;;137.02;45.88;;;1.20;98.00;;;;;;5030924;28;20043;-69
2022/12/04 10:08:13;;;;;;;110.50;42.30;;;1.20;98.00;;;;;;5042192;28;20032;-68
2022/12/04 10:10:41;;;;;;;51.53;30.42;;;1.20;98.00;;;;;;5032575;28;20515;-68
2022/12/04 10:13:36;;;;;;;43.30;28.23;;;1.20;98.00;;;;;;5035090;28;20021;-68
2022/12/04 10:16:21;;;;;;;30.67;19.45;;;1.30;98.00;;;;;;5042241;28;20033;-69
2022/12/04 10:18:59;;;;;;;36.53;19.30;;;1.30;98.00;;;;;;5034157;28;20048;-68
2022/12/04 10:21:31;;;;;;;34.90;20.20;;;1.30;98.00;;;;;;5035072;28;20017;-67
2022/12/04 10:24:27;;;;;;;41.25;21.83;;;1.10;98.00;;;;;;5035302;28;20057;-68
2022/12/04 10:26:56;;;;;;;39.15;20.55;;;1.00;98.00;;;;;;5035269;28;20509;-69
2022/12/04 10:29:28;;;;;;;43.30;21.63;;;0.80;98.00;;;;;;5032727;28;20047;-67
2022/12/04 10:31:55;;;;;;;37.85;20.88;;;0.70;96.80;;;;;;5031708;28;20018;-67
2022/12/04 10:34:31;;;;;;;41.70;23.13;;;0.60;95.80;;;;;;5037127;28;20038;-69
2022/12/04 10:37:10;;;;;;;44.03;24.35;;;0.60;94.90;;;;;;5032358;28;20022;-67
2022/12/04 10:39:44;;;;;;;38.53;21.73;;;0.60;94.60;;;;;;5024703;28;20231;-66
2022/12/04 10:42:12;;;;;;;36.63;21.33;;;0.60;94.70;;;;;;5032255;28;20040;-67
2022/12/04 10:44:39;;;;;;;41.80;22.95;;;0.70;94.60;;;;;;5028413;28;20033;-67
2022/12/04 10:47:05;;;;;;;35.90;20.73;;;0.70;95.50;;;;;;5052550;28;20341;-66
2022/12/04 10:49:34;;;;;;;33.83;19.60;;;0.70;95.30;;;;;;5038646;28;20021;-68
2022/12/04 10:52:00;;;;;;;40.53;22.38;;;0.70;94.90;;;;;;5031333;28;20116;-66
2022/12/04 10:54:39;;;;;;;36.33;20.20;;;0.70;94.40;;;;;;5035595;28;20495;-68
2022/12/04 10:57:10;;;;;;;32.47;19.08;;;0.70;93.60;;;;;;5046491;28;20025;-68
2022/12/04 10:59:51;;;;;;;41.78;21.60;;;0.80;94.20;;;;;;5042377;28;20608;-68
2022/12/04 11:02:26;;;;;;;42.03;21.42;;;0.70;93.70;;;;;;5037108;28;20025;-67
2022/12/04 11:04:57;;;;;;;41.38;20.85;;;0.70;93.60;;;;;;5039850;28;20029;-67
2022/12/04 11:07:29;;;;;;;37.42;20.95;;;0.60;92.30;;;;;;5046557;28;20318;-68
2022/12/04 11:10:02;;;;;;;36.15;20.35;;;0.70;92.00;;;;;;5051432;28;20048;-68
2022/12/04 11:12:28;;;;;;;40.20;22.27;;;0.70;92.20;;;;;;5035652;28;20026;-67
2022/12/04 11:15:13;;;;;;;47.25;23.77;;;0.60;92.20;;;;;;5039692;28;20434;-67
2022/12/04 11:17:38;;;;;;;;;;;0.70;91.30;;;;;;5036371;28;20079;-68
2022/12/04 11:20:07;;;;;;;37.08;18.90;;;0.80;90.10;;;;;;5053714;28;19918;-67
2022/12/04 11:22:36;;;;;;;35.85;20.08;;;0.90;90.20;;;;;;5053828;28;20420;-68
2022/12/04 11:25:02;;;;;;;35.65;19.67;;;1.00;94.20;;;;;;5053346;28;20079;-67
2022/12/04 11:27:33;;;;;;;35.80;18.80;;;1.00;93.50;;;;;;5053391;28;20033;-68
2022/12/04 11:30:34;;;;;;;32.70;19.00;;;1.10;92.90;;;;;;5051285;28;20030;-67
2022/12/04 11:33:06;;;;;;;41.05;22.15;;;1.20;92.50;;;;;;5047109;28;20033;-68
2022/12/04 11:35:32;;;;;;;40.47;22.10;;;1.30;94.90;;;;;;5050207;28;20043;-68
2022/12/04 11:38:14;;;;;;;49.58;27.20;;;1.40;96.00;;;;;;5042759;28;20028;-67
2022/12/04 11:40:53;;;;;;;44.28;24.15;;;1.30;97.20;;;;;;5044481;28;20036;-67
2022/12/04 11:43:20;;;;;;;40.45;21.75;;;1.20;96.10;;;;;;5043095;28;20025;-67
2022/12/04 11:45:58;;;;;;;36.78;20.73;;;1.30;95.90;;;;;;5054595;28;20036;-68
2022/12/04 11:48:25;;;;;;;39.20;21.27;;;1.30;95.30;;;;;;5042380;28;20029;-68
2022/12/04 11:50:50;;;;;;;37.33;20.80;;;1.30;96.20;;;;;;5057860;28;20322;-68
2022/12/04 11:53:54;;;;;;;38.53;21.35;;;1.30;96.70;;;;;;5053013;28;20032;-68
2022/12/04 11:56:34;;;;;;;41.60;23.13;;;1.30;96.70;;;;;;5054448;28;20021;-68
2022/12/04 11:59:18;;;;;;;41.08;21.77;;;1.20;96.30;;;;;;5055516;28;20051;-68
2022/12/04 12:02:15;;;;;;;39.92;21.63;;;1.30;96.60;;;;;;5057634;28;20436;-68
2022/12/04 12:04:52;;;;;;;41.60;22.70;;;1.30;97.10;;;;;;5057592;28;20349;-67
2022/12/04 12:07:21;;;;;;;39.95;21.83;;;1.20;96.80;;;;;;5046163;28;20035;-66
2022/12/04 12:09:59;;;;;;;40.70;21.25;;;1.20;95.90;;;;;;5049303;28;20416;-67
2022/12/04 12:12:48;;;;;;;41.50;22.45;;;1.20;97.40;;;;;;5055248;28;20071;-67
2022/12/04 12:15:39;;;;;;;38.63;21.50;;;1.10;97.10;;;;;;5051404;28;20063;-68
2022/12/04 12:18:05;;;;;;;42.13;23.15;;;1.10;94.80;;;;;;5068056;28;20448;-67
2022/12/04 12:21:00;;;;;;;38.53;21.77;;;1.20;95.20;;;;;;5060371;28;20104;-67
2022/12/04 12:23:39;;;;;;;39.08;21.15;;;1.30;96.00;;;;;;5042535;28;20041;-68
2022/12/04 12:26:05;;;;;;;40.60;21.73;;;1.30;96.20;;;;;;5040987;28;20051;-68
2022/12/04 12:28:58;;;;;;;37.47;20.70;;;1.30;97.30;;;;;;5046315;28;20347;-67
2022/12/04 12:31:53;;;;;;;39.30;21.08;;;1.30;97.20;;;;;;5051851;28;20029;-67
2022/12/04 12:34:36;;;;;;;34.17;19.33;;;1.30;96.50;;;;;;5053496;28;20036;-67
2022/12/04 12:37:16;;;;;;;37.25;20.00;;;1.30;97.60;;;;;;5049633;28;20029;-67
2022/12/04 12:39:49;;;;;;;34.08;18.63;;;1.30;98.00;;;;;;5050955;28;20123;-68
2022/12/04 12:42:22;;;;;;;34.38;19.88;;;1.30;97.80;;;;;;5039114;28;20100;-66
2022/12/04 12:45:20;;;;;;;38.25;20.98;;;1.30;98.00;;;;;;5052181;28;20056;-66
2022/12/04 12:47:53;;;;;;;37.08;20.75;;;1.30;98.00;;;;;;5036447;28;20087;-66
2022/12/04 12:50:25;;;;;;;37.63;20.90;;;1.30;97.60;;;;;;5048301;28;20086;-66
2022/12/04 12:52:57;;;;;;;39.55;20.70;;;1.30;97.20;;;;;;5056139;28;20111;-68
2022/12/04 12:55:35;;;;;;;39.20;21.20;;;1.20;97.60;;;;;;5053762;28;20124;-67
2022/12/04 12:58:36;;;;;;;42.35;22.77;;;1.20;97.00;;;;;;5054450;28;20025;-66
2022/12/04 13:01:21;;;;;;;39.05;21.95;;;1.10;97.00;;;;;;5038411;28;20038;-67
2022/12/04 13:04:01;;;;;;;34.97;19.77;;;1.10;96.10;;;;;;5055205;28;20044;-67
2022/12/04 13:06:32;;;;;;;38.00;21.48;;;1.20;97.10;;;;;;5048938;28;20025;-68
2022/12/04 13:09:24;;;;;;;34.90;19.52;;;1.20;97.20;;;;;;5064396;28;20057;-67